sensor_id;sensor_type;location;lat;lon;timestamp;pressure;altitude;pressure_sealevel;temperature;humidity
43770;BME280;6597;52.218;9.882;2022-10-26T00:00:23;100905.00;;;7.69;100.00
43770;BME280;6597;52.218;9.882;2022-10-26T00:02:49;100903.31;;;7.67;100.00
43770;BME280;6597;52.218;9.882;2022-10-26T00:05:16;100897.28;;;7.63;100.00
43770;BME280;6597;52.218;9.882;2022-10-26T00:07:42;100893.03;;;7.59;100.00
43770;BME280;6597;52.218;9.882;2022-10-26T00:10:09;100887.81;;;7.59;100.00
43770;BME280;6597;52.218;9.882;2022-10-26T00:12:35;100894.75;;;7.60;100.00
43770;BME280;6597;52.218;9.882;2022-10-26T00:15:04;100887.72;;;7.62;100.00
43770;BME280;6597;52.218;9.882;2022-10-26T00:17:31;100893.81;;;7.63;100.00
43770;BME280;6597;52.218;9.882;2022-10-26T00:19:57;100896.47;;;7.61;100.00
43770;BME280;6597;52.218;9.882;2022-10-26T00:22:24;100904.28;;;7.63;100.00
43770;BME280;6597;52.218;9.882;2022-10-26T00:24:51;100904.22;;;7.64;100.00
43770;BME280;6597;52.218;9.882;2022-10-26T00:27:18;100900.84;;;7.61;100.00
43770;BME280;6597;52.218;9.882;2022-10-26T00:29:45;100900.88;;;7.59;100.00
43770;BME280;6597;52.218;9.882;2022-10-26T00:32:12;100904.34;;;7.60;100.00
43770;BME280;6597;52.218;9.882;2022-10-26T00:34:39;100914.00;;;7.56;100.00
43770;BME280;6597;52.218;9.882;2022-10-26T00:37:05;100898.38;;;7.53;100.00
43770;BME280;6597;52.218;9.882;2022-10-26T00:39:32;100908.03;;;7.49;100.00
43770;BME280;6597;52.218;9.882;2022-10-26T00:41:58;100902.84;;;7.46;100.00
43770;BME280;6597;52.218;9.882;2022-10-26T00:44:54;100900.19;;;7.49;100.00
43770;BME280;6597;52.218;9.882;2022-10-26T00:47:30;100893.19;;;7.52;100.00
43770;BME280;6597;52.218;9.882;2022-10-26T00:50:02;100894.06;;;7.52;100.00
43770;BME280;6597;52.218;9.882;2022-10-26T00:52:29;100898.38;;;7.53;100.00
43770;BME280;6597;52.218;9.882;2022-10-26T00:54:55;100886.19;;;7.54;100.00
43770;BME280;6597;52.218;9.882;2022-10-26T00:57:22;100901.03;;;7.52;100.00
43770;BME280;6597;52.218;9.882;2022-10-26T00:59:50;100888.88;;;7.47;100.00
43770;BME280;6597;52.218;9.882;2022-10-26T01:02:19;100895.00;;;7.48;100.00
43770;BME280;6597;52.218;9.882;2022-10-26T01:04:47;100890.66;;;7.48;100.00
43770;BME280;6597;52.218;9.882;2022-10-26T01:07:13;100891.53;;;7.46;100.00
43770;BME280;6597;52.218;9.882;2022-10-26T01:09:40;100890.66;;;7.45;100.00
43770;BME280;6597;52.218;9.882;2022-10-26T01:12:07;100890.72;;;7.44;100.00
43770;BME280;6597;52.218;9.882;2022-10-26T01:14:34;100879.44;;;7.42;100.00
43770;BME280;6597;52.218;9.882;2022-10-26T01:17:06;100882.06;;;7.40;100.00
43770;BME280;6597;52.218;9.882;2022-10-26T01:19:59;100898.72;;;7.35;100.00
43770;BME280;6597;52.218;9.882;2022-10-26T01:22:38;100892.69;;;7.33;100.00
43770;BME280;6597;52.218;9.882;2022-10-26T01:25:15;100884.84;;;7.33;100.00
43770;BME280;6597;52.218;9.882;2022-10-26T01:27:50;100886.63;;;7.31;100.00
43770;BME280;6597;52.218;9.882;2022-10-26T01:30:37;100889.31;;;7.28;100.00
43770;BME280;6597;52.218;9.882;2022-10-26T01:33:26;100882.31;;;7.28;100.00
43770;BME280;6597;52.218;9.882;2022-10-26T01:36:02;100874.47;;;7.30;100.00
43770;BME280;6597;52.218;9.882;2022-10-26T01:38:34;100881.41;;;7.31;100.00
43770;BME280;6597;52.218;9.882;2022-10-26T01:41:07;100876.19;;;7.31;100.00
43770;BME280;6597;52.218;9.882;2022-10-26T01:43:40;100872.72;;;7.30;100.00
43770;BME280;6597;52.218;9.882;2022-10-26T01:46:09;100878.75;;;7.32;100.00
43770;BME280;6597;52.218;9.882;2022-10-26T01:48:37;100877.91;;;7.32;100.00
43770;BME280;6597;52.218;9.882;2022-10-26T01:51:06;100872.56;;;7.38;100.00
43770;BME280;6597;52.218;9.882;2022-10-26T01:53:34;100866.41;;;7.40;100.00
43770;BME280;6597;52.218;9.882;2022-10-26T01:56:01;100867.22;;;7.42;100.00
43770;BME280;6597;52.218;9.882;2022-10-26T01:58:43;100872.47;;;7.42;100.00
43770;BME280;6597;52.218;9.882;2022-10-26T02:01:32;100861.09;;;7.45;100.00
43770;BME280;6597;52.218;9.882;2022-10-26T02:04:06;100860.13;;;7.51;100.00
43770;BME280;6597;52.218;9.882;2022-10-26T02:06:40;100857.44;;;7.54;100.00
43770;BME280;6597;52.218;9.882;2022-10-26T02:09:17;100850.47;;;7.54;100.00
43770;BME280;6597;52.218;9.882;2022-10-26T02:11:47;100861.75;;;7.56;100.00
43770;BME280;6597;52.218;9.882;2022-10-26T02:14:19;100849.56;;;7.55;100.00
43770;BME280;6597;52.218;9.882;2022-10-26T02:16:53;100852.22;;;7.54;100.00
43770;BME280;6597;52.218;9.882;2022-10-26T02:19:41;100850.44;;;7.56;100.00
43770;BME280;6597;52.218;9.882;2022-10-26T02:22:14;100850.47;;;7.54;100.00
43770;BME280;6597;52.218;9.882;2022-10-26T02:24:42;100847.00;;;7.54;100.00
43770;BME280;6597;52.218;9.882;2022-10-26T02:27:19;100843.47;;;7.56;100.00
43770;BME280;6597;52.218;9.882;2022-10-26T02:29:49;100835.50;;;7.61;100.00
43770;BME280;6597;52.218;9.882;2022-10-26T02:32:19;100841.50;;;7.66;100.00
43770;BME280;6597;52.218;9.882;2022-10-26T02:34:48;100837.84;;;7.73;100.00
43770;BME280;6597;52.218;9.882;2022-10-26T02:37:18;100829.09;;;7.75;100.00
43770;BME280;6597;52.218;9.882;2022-10-26T02:39:48;100821.16;;;7.78;100.00
43770;BME280;6597;52.218;9.882;2022-10-26T02:42:17;100828.09;;;7.81;100.00
43770;BME280;6597;52.218;9.882;2022-10-26T02:44:49;100815.03;;;7.81;100.00
43770;BME280;6597;52.218;9.882;2022-10-26T02:47:18;100811.53;;;7.82;100.00
43770;BME280;6597;52.218;9.882;2022-10-26T02:49:46;100821.09;;;7.83;100.00
43770;BME280;6597;52.218;9.882;2022-10-26T02:52:17;100818.47;;;7.83;100.00
43770;BME280;6597;52.218;9.882;2022-10-26T02:54:52;100818.53;;;7.80;100.00
43770;BME280;6597;52.218;9.882;2022-10-26T02:57:23;100810.69;;;7.82;100.00
43770;BME280;6597;52.218;9.882;2022-10-26T02:59:52;100796.75;;;7.81;100.00
43770;BME280;6597;52.218;9.882;2022-10-26T03:02:21;100804.56;;;7.83;100.00
43770;BME280;6597;52.218;9.882;2022-10-26T03:04:48;100804.56;;;7.83;100.00
43770;BME280;6597;52.218;9.882;2022-10-26T03:07:20;100808.81;;;7.87;100.00
43770;BME280;6597;52.218;9.882;2022-10-26T03:09:46;100812.25;;;7.89;100.00
43770;BME280;6597;52.218;9.882;2022-10-26T03:12:13;100810.41;;;7.92;100.00
43770;BME280;6597;52.218;9.882;2022-10-26T03:14:39;100805.16;;;7.94;100.00
43770;BME280;6597;52.218;9.882;2022-10-26T03:17:06;100799.97;;;7.92;100.00
43770;BME280;6597;52.218;9.882;2022-10-26T03:19:35;100800.75;;;7.96;100.00
43770;BME280;6597;52.218;9.882;2022-10-26T03:22:01;100801.59;;;7.96;100.00
43770;BME280;6597;52.218;9.882;2022-10-26T03:24:28;100794.63;;;7.97;100.00
43770;BME280;6597;52.218;9.882;2022-10-26T03:26:54;100803.25;;;8.00;100.00
43770;BME280;6597;52.218;9.882;2022-10-26T03:29:21;100790.19;;;8.00;100.00
43770;BME280;6597;52.218;9.882;2022-10-26T03:31:47;100802.31;;;8.03;100.00
43770;BME280;6597;52.218;9.882;2022-10-26T03:34:18;100791.97;;;7.98;100.00
43770;BME280;6597;52.218;9.882;2022-10-26T03:36:46;100784.13;;;7.98;100.00
43770;BME280;6597;52.218;9.882;2022-10-26T03:39:12;100787.53;;;8.02;100.00
43770;BME280;6597;52.218;9.882;2022-10-26T03:41:39;100793.53;;;8.05;100.00
43770;BME280;6597;52.218;9.882;2022-10-26T03:44:05;100787.44;;;8.05;100.00
43770;BME280;6597;52.218;9.882;2022-10-26T03:46:32;100781.31;;;8.06;100.00
43770;BME280;6597;52.218;9.882;2022-10-26T03:48:58;100789.16;;;8.06;100.00
43770;BME280;6597;52.218;9.882;2022-10-26T03:51:25;100790.88;;;8.07;100.00
43770;BME280;6597;52.218;9.882;2022-10-26T03:53:53;100781.31;;;8.06;100.00
43770;BME280;6597;52.218;9.882;2022-10-26T03:56:20;100788.34;;;8.04;100.00
43770;BME280;6597;52.218;9.882;2022-10-26T03:58:46;100790.09;;;8.03;100.00
43770;BME280;6597;52.218;9.882;2022-10-26T04:01:13;100789.31;;;8.00;100.00
43770;BME280;6597;52.218;9.882;2022-10-26T04:03:39;100786.66;;;8.01;100.00
43770;BME280;6597;52.218;9.882;2022-10-26T04:06:06;100790.13;;;8.02;100.00
43770;BME280;6597;52.218;9.882;2022-10-26T04:08:32;100797.03;;;8.04;100.00
43770;BME280;6597;52.218;9.882;2022-10-26T04:11:00;100782.25;;;8.03;100.00
43770;BME280;6597;52.218;9.882;2022-10-26T04:13:27;100789.16;;;8.06;100.00
43770;BME280;6597;52.218;9.882;2022-10-26T04:15:53;100776.00;;;8.09;100.00
43770;BME280;6597;52.218;9.882;2022-10-26T04:18:20;100779.41;;;8.14;100.00
43770;BME280;6597;52.218;9.882;2022-10-26T04:20:47;100773.19;;;8.18;100.00
43770;BME280;6597;52.218;9.882;2022-10-26T04:23:15;100774.91;;;8.19;100.00
43770;BME280;6597;52.218;9.882;2022-10-26T04:25:42;100778.44;;;8.18;100.00
43770;BME280;6597;52.218;9.882;2022-10-26T04:28:13;100786.34;;;8.15;100.00
43770;BME280;6597;52.218;9.882;2022-10-26T04:30:40;100778.56;;;8.12;100.00
43770;BME280;6597;52.218;9.882;2022-10-26T04:33:07;100782.94;;;8.11;100.00
43770;BME280;6597;52.218;9.882;2022-10-26T04:35:33;100781.16;;;8.12;100.00
43770;BME280;6597;52.218;9.882;2022-10-26T04:38:01;100780.31;;;8.11;100.00
43770;BME280;6597;52.218;9.882;2022-10-26T04:40:29;100780.38;;;8.08;100.00
43770;BME280;6597;52.218;9.882;2022-10-26T04:42:56;100784.78;;;8.06;100.00
43770;BME280;6597;52.218;9.882;2022-10-26T04:45:25;100782.38;;;7.99;100.00
43770;BME280;6597;52.218;9.882;2022-10-26T04:48:00;100784.16;;;7.97;100.00
43770;BME280;6597;52.218;9.882;2022-10-26T04:50:27;100777.28;;;7.93;100.00
43770;BME280;6597;52.218;9.882;2022-10-26T04:52:53;100786.13;;;7.89;100.00
43770;BME280;6597;52.218;9.882;2022-10-26T04:55:20;100783.56;;;7.86;100.00
43770;BME280;6597;52.218;9.882;2022-10-26T04:57:47;100781.91;;;7.83;100.00
43770;BME280;6597;52.218;9.882;2022-10-26T05:00:13;100775.88;;;7.78;100.00
43770;BME280;6597;52.218;9.882;2022-10-26T05:02:41;100782.94;;;7.74;100.00
43770;BME280;6597;52.218;9.882;2022-10-26T05:05:08;100773.50;;;7.69;100.00
43770;BME280;6597;52.218;9.882;2022-10-26T05:07:35;100778.78;;;7.66;100.00
43770;BME280;6597;52.218;9.882;2022-10-26T05:10:02;100784.16;;;7.60;100.00
43770;BME280;6597;52.218;9.882;2022-10-26T05:12:28;100784.19;;;7.58;100.00
43770;BME280;6597;52.218;9.882;2022-10-26T05:14:55;100785.13;;;7.56;100.00
43770;BME280;6597;52.218;9.882;2022-10-26T05:17:23;100781.72;;;7.52;100.00
43770;BME280;6597;52.218;9.882;2022-10-26T05:19:51;100774.84;;;7.48;100.00
43770;BME280;6597;52.218;9.882;2022-10-26T05:22:20;100776.59;;;7.46;100.00
43770;BME280;6597;52.218;9.882;2022-10-26T05:24:46;100783.63;;;7.44;100.00
43770;BME280;6597;52.218;9.882;2022-10-26T05:27:13;100777.59;;;7.40;100.00
43770;BME280;6597;52.218;9.882;2022-10-26T05:29:39;100773.28;;;7.39;100.00
43770;BME280;6597;52.218;9.882;2022-10-26T05:32:06;100770.69;;;7.38;100.00
43770;BME280;6597;52.218;9.882;2022-10-26T05:34:32;100779.47;;;7.35;100.00
43770;BME280;6597;52.218;9.882;2022-10-26T05:37:00;100776.97;;;7.31;100.00
43770;BME280;6597;52.218;9.882;2022-10-26T05:39:27;100774.41;;;7.28;100.00
43770;BME280;6597;52.218;9.882;2022-10-26T05:41:53;100777.03;;;7.28;100.00
43770;BME280;6597;52.218;9.882;2022-10-26T05:44:20;100774.41;;;7.28;100.00
43770;BME280;6597;52.218;9.882;2022-10-26T05:46:46;100776.97;;;7.31;100.00
43770;BME280;6597;52.218;9.882;2022-10-26T05:49:13;100776.81;;;7.37;100.00
43770;BME280;6597;52.218;9.882;2022-10-26T05:51:40;100781.78;;;7.49;100.00
43770;BME280;6597;52.218;9.882;2022-10-26T05:54:07;100771.13;;;7.58;100.00
43770;BME280;6597;52.218;9.882;2022-10-26T05:56:35;100770.03;;;7.68;100.00
43770;BME280;6597;52.218;9.882;2022-10-26T05:59:03;100770.63;;;7.81;100.00
43770;BME280;6597;52.218;9.882;2022-10-26T06:01:36;100778.94;;;7.97;100.00
43770;BME280;6597;52.218;9.882;2022-10-26T06:04:14;100772.47;;;8.11;100.00
43770;BME280;6597;52.218;9.882;2022-10-26T06:06:46;100779.41;;;8.12;100.00
43770;BME280;6597;52.218;9.882;2022-10-26T06:09:20;100777.69;;;8.13;100.00
43770;BME280;6597;52.218;9.882;2022-10-26T06:11:47;100782.84;;;8.16;100.00
43770;BME280;6597;52.218;9.882;2022-10-26T06:14:14;100784.63;;;8.14;100.00
43770;BME280;6597;52.218;9.882;2022-10-26T06:16:53;100779.50;;;8.09;100.00
43770;BME280;6597;52.218;9.882;2022-10-26T06:19:29;100772.75;;;8.01;100.00
43770;BME280;6597;52.218;9.882;2022-10-26T06:22:09;100778.78;;;8.03;100.00
43770;BME280;6597;52.218;9.882;2022-10-26T06:24:46;100779.72;;;8.00;100.00
43770;BME280;6597;52.218;9.882;2022-10-26T06:27:22;100791.00;;;8.02;100.00
43770;BME280;6597;52.218;9.882;2022-10-26T06:29:56;100791.03;;;8.01;100.00
43770;BME280;6597;52.218;9.882;2022-10-26T06:32:26;100790.91;;;8.05;100.00
43770;BME280;6597;52.218;9.882;2022-10-26T06:35:09;100785.63;;;8.08;100.00
43770;BME280;6597;52.218;9.882;2022-10-26T06:37:40;100795.13;;;8.11;100.00
43770;BME280;6597;52.218;9.882;2022-10-26T06:40:10;100794.19;;;8.15;100.00
43770;BME280;6597;52.218;9.882;2022-10-26T06:42:40;100795.00;;;8.17;100.00
43770;BME280;6597;52.218;9.882;2022-10-26T06:45:10;100797.50;;;8.22;100.00
43770;BME280;6597;52.218;9.882;2022-10-26T06:47:41;100797.41;;;8.26;100.00
43770;BME280;6597;52.218;9.882;2022-10-26T06:50:23;100780.03;;;8.24;100.00
43770;BME280;6597;52.218;9.882;2022-10-26T06:52:57;100792.03;;;8.31;100.00
43770;BME280;6597;52.218;9.882;2022-10-26T06:55:36;100793.50;;;8.42;100.00
43770;BME280;6597;52.218;9.882;2022-10-26T06:58:07;100792.34;;;8.54;100.00
43770;BME280;6597;52.218;9.882;2022-10-26T07:00:38;100805.06;;;8.68;100.00
43770;BME280;6597;52.218;9.882;2022-10-26T07:03:05;100795.91;;;8.84;100.00
43770;BME280;6597;52.218;9.882;2022-10-26T07:05:32;100799.34;;;9.17;100.00
43770;BME280;6597;52.218;9.882;2022-10-26T07:07:58;100799.31;;;9.78;100.00
43770;BME280;6597;52.218;9.882;2022-10-26T07:10:25;100803.47;;;10.64;100.00
43770;BME280;6597;52.218;9.882;2022-10-26T07:12:53;100804.16;;;11.42;100.00
43770;BME280;6597;52.218;9.882;2022-10-26T07:15:19;100799.81;;;12.08;100.00
43770;BME280;6597;52.218;9.882;2022-10-26T07:17:47;100796.72;;;12.61;100.00
43770;BME280;6597;52.218;9.882;2022-10-26T07:20:15;100799.22;;;13.05;100.00
43770;BME280;6597;52.218;9.882;2022-10-26T07:22:41;100810.63;;;13.45;99.50
43770;BME280;6597;52.218;9.882;2022-10-26T07:25:09;100802.09;;;13.94;97.73
43770;BME280;6597;52.218;9.882;2022-10-26T07:27:36;100801.56;;;14.41;93.75
43770;BME280;6597;52.218;9.882;2022-10-26T07:30:05;100808.72;;;14.91;89.06
43770;BME280;6597;52.218;9.882;2022-10-26T07:32:32;100806.41;;;15.18;86.89
43770;BME280;6597;52.218;9.882;2022-10-26T07:34:58;100813.13;;;15.41;85.02
43770;BME280;6597;52.218;9.882;2022-10-26T07:37:25;100812.34;;;15.39;82.03
43770;BME280;6597;52.218;9.882;2022-10-26T07:39:51;100819.00;;;14.97;82.16
43770;BME280;6597;52.218;9.882;2022-10-26T07:42:18;100816.47;;;14.42;84.13
43770;BME280;6597;52.218;9.882;2022-10-26T07:44:44;100820.56;;;13.94;86.92
43770;BME280;6597;52.218;9.882;2022-10-26T07:47:12;100829.72;;;13.50;89.34
43770;BME280;6597;52.218;9.882;2022-10-26T07:49:39;100821.09;;;13.07;92.70
43770;BME280;6597;52.218;9.882;2022-10-26T07:52:06;100837.63;;;12.70;95.99
43770;BME280;6597;52.218;9.882;2022-10-26T07:54:32;100831.69;;;12.44;98.21
43770;BME280;6597;52.218;9.882;2022-10-26T07:56:59;100822.16;;;12.20;100.00
43770;BME280;6597;52.218;9.882;2022-10-26T07:59:25;100829.81;;;12.04;100.00
43770;BME280;6597;52.218;9.882;2022-10-26T08:01:52;100829.81;;;12.04;100.00
43770;BME280;6597;52.218;9.882;2022-10-26T08:04:20;100827.19;;;12.04;100.00
43770;BME280;6597;52.218;9.882;2022-10-26T08:06:46;100824.56;;;12.04;100.00
43770;BME280;6597;52.218;9.882;2022-10-26T08:09:13;100830.63;;;12.06;100.00
43770;BME280;6597;52.218;9.882;2022-10-26T08:11:39;100821.94;;;12.04;100.00
43770;BME280;6597;52.218;9.882;2022-10-26T08:14:06;100831.63;;;12.02;100.00
43770;BME280;6597;52.218;9.882;2022-10-26T08:16:32;100833.31;;;12.05;100.00
43770;BME280;6597;52.218;9.882;2022-10-26T08:18:59;100834.22;;;12.04;100.00
43770;BME280;6597;52.218;9.882;2022-10-26T08:21:27;100836.78;;;12.05;100.00
43770;BME280;6597;52.218;9.882;2022-10-26T08:23:53;100835.81;;;12.08;100.00
43770;BME280;6597;52.218;9.882;2022-10-26T08:26:20;100844.44;;;12.11;100.00
43770;BME280;6597;52.218;9.882;2022-10-26T08:28:47;100833.78;;;12.14;100.00
43770;BME280;6597;52.218;9.882;2022-10-26T08:31:14;100839.91;;;12.15;100.00
43770;BME280;6597;52.218;9.882;2022-10-26T08:33:40;100836.41;;;12.14;100.00
43770;BME280;6597;52.218;9.882;2022-10-26T08:36:07;100840.81;;;12.14;100.00
43770;BME280;6597;52.218;9.882;2022-10-26T08:38:35;100830.34;;;12.12;100.00
43770;BME280;6597;52.218;9.882;2022-10-26T08:41:05;100826.88;;;12.12;100.00
43770;BME280;6597;52.218;9.882;2022-10-26T08:43:37;100831.94;;;12.17;100.00
43770;BME280;6597;52.218;9.882;2022-10-26T08:46:10;100830.91;;;12.21;100.00
43770;BME280;6597;52.218;9.882;2022-10-26T08:48:42;100827.22;;;12.25;100.00
43770;BME280;6597;52.218;9.882;2022-10-26T08:51:11;100824.28;;;12.32;100.00
43770;BME280;6597;52.218;9.882;2022-10-26T08:53:42;100816.00;;;12.41;100.00
43770;BME280;6597;52.218;9.882;2022-10-26T08:56:16;100820.03;;;12.50;100.00
43770;BME280;6597;52.218;9.882;2022-10-26T08:58:46;100814.50;;;12.56;100.00
43770;BME280;6597;52.218;9.882;2022-10-26T09:01:15;100815.94;;;12.63;100.00
43770;BME280;6597;52.218;9.882;2022-10-26T09:03:42;100816.38;;;12.74;100.00
43770;BME280;6597;52.218;9.882;2022-10-26T09:06:18;100810.69;;;12.84;100.00
43770;BME280;6597;52.218;9.882;2022-10-26T09:08:55;100806.84;;;12.91;100.00
43770;BME280;6597;52.218;9.882;2022-10-26T09:11:35;100801.13;;;13.01;100.00
43770;BME280;6597;52.218;9.882;2022-10-26T09:14:12;100801.13;;;13.22;100.00
43770;BME280;6597;52.218;9.882;2022-10-26T09:16:50;100811.91;;;13.74;100.00
43770;BME280;6597;52.218;9.882;2022-10-26T09:19:39;100801.91;;;14.52;100.00
43770;BME280;6597;52.218;9.882;2022-10-26T09:22:15;100811.34;;;15.08;100.00
43770;BME280;6597;52.218;9.882;2022-10-26T09:24:49;100806.50;;;15.81;96.12
43770;BME280;6597;52.218;9.882;2022-10-26T09:27:20;100804.13;;;16.38;90.11
43770;BME280;6597;52.218;9.882;2022-10-26T09:29:50;100808.75;;;16.64;86.96
43770;BME280;6597;52.218;9.882;2022-10-26T09:32:18;100808.59;;;16.67;83.76
43770;BME280;6597;52.218;9.882;2022-10-26T09:34:48;100815.47;;;17.00;82.04
43770;BME280;6597;52.218;9.882;2022-10-26T09:37:18;100809.00;;;17.89;80.06
43770;BME280;6597;52.218;9.882;2022-10-26T09:39:54;100818.75;;;18.70;73.28
43770;BME280;6597;52.218;9.882;2022-10-26T09:42:27;100819.81;;;19.05;71.77
43770;BME280;6597;52.218;9.882;2022-10-26T09:44:57;100824.09;;;19.08;71.64
43770;BME280;6597;52.218;9.882;2022-10-26T09:47:32;100832.91;;;18.95;71.17
43770;BME280;6597;52.218;9.882;2022-10-26T09:50:05;100828.00;;;18.77;72.47
43770;BME280;6597;52.218;9.882;2022-10-26T09:52:32;100832.63;;;18.60;73.20
43770;BME280;6597;52.218;9.882;2022-10-26T09:55:00;100839.28;;;18.53;73.41
43770;BME280;6597;52.218;9.882;2022-10-26T09:57:27;100831.84;;;18.46;74.22
43770;BME280;6597;52.218;9.882;2022-10-26T09:59:54;100833.41;;;18.35;75.20
43770;BME280;6597;52.218;9.882;2022-10-26T10:02:34;100829.16;;;18.33;76.31
43770;BME280;6597;52.218;9.882;2022-10-26T10:05:01;100824.91;;;18.43;75.55
43770;BME280;6597;52.218;9.882;2022-10-26T10:07:28;100823.53;;;18.38;76.38
43770;BME280;6597;52.218;9.882;2022-10-26T10:10:08;100815.75;;;18.08;76.91
43770;BME280;6597;52.218;9.882;2022-10-26T10:12:39;100830.16;;;17.91;78.80
43770;BME280;6597;52.218;9.882;2022-10-26T10:15:16;100829.88;;;17.81;79.25
43770;BME280;6597;52.218;9.882;2022-10-26T10:17:47;100820.88;;;17.69;78.75
43770;BME280;6597;52.218;9.882;2022-10-26T10:20:18;100831.78;;;17.65;79.58
43770;BME280;6597;52.218;9.882;2022-10-26T10:22:55;100832.63;;;17.65;80.81
43770;BME280;6597;52.218;9.882;2022-10-26T10:25:32;100833.31;;;17.69;81.48
43770;BME280;6597;52.218;9.882;2022-10-26T10:27:59;100834.25;;;17.68;80.50
43770;BME280;6597;52.218;9.882;2022-10-26T10:30:28;100833.22;;;17.56;80.93
43770;BME280;6597;52.218;9.882;2022-10-26T10:33:06;100830.91;;;17.50;80.95
43770;BME280;6597;52.218;9.882;2022-10-26T10:35:33;100841.91;;;17.44;79.75
43770;BME280;6597;52.218;9.882;2022-10-26T10:38:00;100840.97;;;17.45;78.77
43770;BME280;6597;52.218;9.882;2022-10-26T10:40:28;100839.09;;;17.33;77.47
43770;BME280;6597;52.218;9.882;2022-10-26T10:43:04;100835.97;;;17.26;77.64
43770;BME280;6597;52.218;9.882;2022-10-26T10:45:33;100840.31;;;17.13;78.17
43770;BME280;6597;52.218;9.882;2022-10-26T10:48:03;100834.53;;;17.06;78.85
43770;BME280;6597;52.218;9.882;2022-10-26T10:50:31;100840.28;;;16.99;79.06
43770;BME280;6597;52.218;9.882;2022-10-26T10:53:16;100819.47;;;16.93;79.39
43770;BME280;6597;52.218;9.882;2022-10-26T10:55:56;100832.34;;;16.99;80.28
43770;BME280;6597;52.218;9.882;2022-10-26T10:58:29;100841.53;;;17.07;80.21
43770;BME280;6597;52.218;9.882;2022-10-26T11:01:00;100837.06;;;17.22;80.68
43770;BME280;6597;52.218;9.882;2022-10-26T11:03:39;100837.84;;;17.38;80.93
43770;BME280;6597;52.218;9.882;2022-10-26T11:06:13;100833.75;;;17.47;79.08
43770;BME280;6597;52.218;9.882;2022-10-26T11:08:45;100840.38;;;17.54;78.49
43770;BME280;6597;52.218;9.882;2022-10-26T11:11:18;100842.03;;;17.57;77.92
43770;BME280;6597;52.218;9.882;2022-10-26T11:13:51;100845.84;;;17.67;78.50
43770;BME280;6597;52.218;9.882;2022-10-26T11:16:22;100840.69;;;17.78;77.45
43770;BME280;6597;52.218;9.882;2022-10-26T11:18:55;100842.69;;;17.89;77.89
43770;BME280;6597;52.218;9.882;2022-10-26T11:21:26;100846.59;;;18.10;79.61
43770;BME280;6597;52.218;9.882;2022-10-26T11:24:00;100839.03;;;18.31;77.59
43770;BME280;6597;52.218;9.882;2022-10-26T11:26:40;100827.13;;;18.37;74.53
43770;BME280;6597;52.218;9.882;2022-10-26T11:29:18;100837.78;;;18.49;74.27
43770;BME280;6597;52.218;9.882;2022-10-26T11:31:51;100842.31;;;18.61;72.95
43770;BME280;6597;52.218;9.882;2022-10-26T11:34:24;100850.22;;;18.63;72.26
43770;BME280;6597;52.218;9.882;2022-10-26T11:36:55;100842.69;;;18.82;70.36
43770;BME280;6597;52.218;9.882;2022-10-26T11:39:33;100844.50;;;19.45;68.80
43770;BME280;6597;52.218;9.882;2022-10-26T11:42:08;100837.47;;;20.06;67.41
43770;BME280;6597;52.218;9.882;2022-10-26T11:47:13;100842.03;;;20.76;65.10
43770;BME280;6597;52.218;9.882;2022-10-26T11:49:45;100853.50;;;21.00;62.50
43770;BME280;6597;52.218;9.882;2022-10-26T11:52:18;100853.19;;;21.16;61.70
43770;BME280;6597;52.218;9.882;2022-10-26T11:54:48;100856.88;;;21.37;60.30
43770;BME280;6597;52.218;9.882;2022-10-26T11:57:21;100848.97;;;21.58;59.46
43770;BME280;6597;52.218;9.882;2022-10-26T11:59:51;100857.34;;;21.87;57.64
43770;BME280;6597;52.218;9.882;2022-10-26T12:02:20;100863.06;;;21.83;57.55
43770;BME280;6597;52.218;9.882;2022-10-26T12:04:52;100856.34;;;21.77;56.41
43770;BME280;6597;52.218;9.882;2022-10-26T12:07:24;100861.72;;;21.66;57.67
43770;BME280;6597;52.218;9.882;2022-10-26T12:09:53;100865.34;;;21.76;58.74
43770;BME280;6597;52.218;9.882;2022-10-26T12:12:27;100865.59;;;22.07;57.32
43770;BME280;6597;52.218;9.882;2022-10-26T12:15:01;100862.41;;;22.24;57.52
43770;BME280;6597;52.218;9.882;2022-10-26T12:17:34;100856.63;;;22.40;55.33
43770;BME280;6597;52.218;9.882;2022-10-26T12:20:14;100861.84;;;21.87;56.21
43770;BME280;6597;52.218;9.882;2022-10-26T12:22:48;100860.41;;;21.49;55.70
43770;BME280;6597;52.218;9.882;2022-10-26T12:25:20;100863.16;;;21.36;57.03
43770;BME280;6597;52.218;9.882;2022-10-26T12:27:53;100865.59;;;21.28;56.78
43770;BME280;6597;52.218;9.882;2022-10-26T12:30:26;100861.22;;;21.27;57.97
43770;BME280;6597;52.218;9.882;2022-10-26T12:32:54;100859.31;;;21.52;57.54
43770;BME280;6597;52.218;9.882;2022-10-26T12:35:33;100872.03;;;21.37;57.87
43770;BME280;6597;52.218;9.882;2022-10-26T12:38:02;100873.22;;;21.22;57.55
43770;BME280;6597;52.218;9.882;2022-10-26T12:40:48;100866.94;;;20.88;57.34
43770;BME280;6597;52.218;9.882;2022-10-26T12:43:36;100856.53;;;21.07;57.28
43770;BME280;6597;52.218;9.882;2022-10-26T12:46:36;100854.94;;;21.62;56.57
43770;BME280;6597;52.218;9.882;2022-10-26T12:52:18;100865.94;;;22.56;53.12
43770;BME280;6597;52.218;9.882;2022-10-26T12:54:54;100855.47;;;22.85;53.33
43770;BME280;6597;52.218;9.882;2022-10-26T12:57:30;100851.63;;;22.99;51.41
43770;BME280;6597;52.218;9.882;2022-10-26T13:00:05;100858.16;;;22.85;52.27
43770;BME280;6597;52.218;9.882;2022-10-26T13:02:47;100869.59;;;22.12;52.68
43770;BME280;6597;52.218;9.882;2022-10-26T13:05:38;100867.06;;;21.32;55.98
43770;BME280;6597;52.218;9.882;2022-10-26T13:08:10;100867.03;;;21.21;57.71
43770;BME280;6597;52.218;9.882;2022-10-26T13:10:43;100864.72;;;21.17;58.84
43770;BME280;6597;52.218;9.882;2022-10-26T13:13:20;100869.75;;;20.97;58.34
43770;BME280;6597;52.218;9.882;2022-10-26T13:15:53;100872.38;;;21.21;58.19
43770;BME280;6597;52.218;9.882;2022-10-26T13:18:20;100858.59;;;21.50;56.10
43770;BME280;6597;52.218;9.882;2022-10-26T13:20:52;100861.97;;;21.40;56.76
43770;BME280;6597;52.218;9.882;2022-10-26T13:23:25;100873.22;;;21.22;57.43